Lambert, MT

9:06 PM MDT on October 01, 2014 (GMT -0600)
Sidney-Richland Municipal | Change Station
CLOSE
Current Station
Airport
Location: Sidney-Richland,
Elevation: 1985 ft
Nearby Weather Stations

Elev 1985 ft 47.71 °N, 104.19 °W | Updated -1722 second ago

Partly Cloudy
Partly Cloudy
52 °F
Feels Like 52 °F
N
0
Wind Variable Wind from North

Today
High -- | Low -- °F
--% Chance of Precip.
Yesterday
High -- | Low -- °F
Precip. -- in
6:58 AM 6:38 PM
First Quarter, 54% visible
Pressure 29.53 in
Visibility 10.0 miles
Clouds Scattered Clouds 4600 ft
Mostly Cloudy 6000 ft
Mostly Cloudy 7000 ft
Dew Point 50 °F
Humidity 94%
Rainfall 0.60 in
Snow Depth 0 in , 1 in , 1 in
UV 0 out of 12
Pollen .10 out of 12
Air Quality Not available.
Flu Activity Not available.
METAR KSDY 010335Z AUTO 00000KT 10SM SCT046 BKN060 BKN070 11/10 A2953 RMK AO1

More Conditions Fewer Conditions

Pressure 29.53 in
Visibility 10.0 miles
Clouds Scattered Clouds 4600 ft
Mostly Cloudy 6000 ft
Mostly Cloudy 7000 ft
Dew Point 50 °F
Humidity 94%
Rainfall 0.60 in
Snow Depth 0 in , 1 in , 1 in
UV 0 out of 12
Pollen .10 out of 12
Air Quality Not available.
Flu Activity Not available.
METAR KSDY 010335Z AUTO 00000KT 10SM SCT046 BKN060 BKN070 11/10 A2953 RMK AO1

More Conditions Fewer Conditions

10-Day Weather Forecast

Almanac

Astronomy

Oct. 01, 2014 Rise Set
Actual Time 6:58 AM MDT 6:38 PM MDT
Civil Twilight 6:27 AM MDT 7:08 PM MDT
Nautical Twilight 5:51 AM MDT 7:44 PM MDT
Astronomical Twilight 5:14 AM MDT 8:21 PM MDT
Moon 2:19 PM MDT (10/1) 11:55 PM MDT (10/1)
Length of Visible Light 12h 41m
Length of Day
11h 40m
Tomorrow will be 3m 26s shorter.
First Quarter, 54% of the Moon is Illuminated
Today
First Quarter
Oct 8
Full
Oct 15
Last Quarter
Oct 23
New
Oct 30
First Quarter

Today's Extremes

State Highs State Lows

Community

WunderPhotos

Upload Photos

1,758,157 photos uploaded!

WunderBlogs® & News

Nearby

Snow Depth

Station Depth Elevation
Saddle Mountain 0 in 7900 ft
Nevada Ridge 1 in 7020 ft
Brackett Creek 1 in 7320 ft
Short Creek 0 in 7000 ft
Frohner Meadow 0 in 6480 ft

Earthquake Activity

City Distance Mag. Time & Date
No recent earthquake activity has been reported nearby.
Minimum magnitude displayed is 2.5.

Coastal Water Temperatures

Place Temperature
No Stations Reporting

Nearby Weather Stations